createdAt,value
2019-03-17T00:00:29.431Z,8
2019-03-17T00:05:29.452Z,7.94
2019-03-17T00:10:29.434Z,7.88
2019-03-17T00:15:29.453Z,7.81
2019-03-17T00:20:29.458Z,7.75
2019-03-17T00:25:29.433Z,7.56
2019-03-17T00:30:29.449Z,7.5
2019-03-17T00:35:29.401Z,7.44
2019-03-17T00:40:29.443Z,7.31
2019-03-17T00:45:29.453Z,7.06
2019-03-17T00:50:29.479Z,7
2019-03-17T00:55:29.449Z,6.88
2019-03-17T01:00:29.443Z,6.75
2019-03-17T01:05:31.222Z,6.56
2019-03-17T01:10:29.542Z,6.63
2019-03-17T01:15:29.424Z,6.69
2019-03-17T01:20:29.448Z,6.75
2019-03-17T01:25:29.494Z,6.69
2019-03-17T01:30:29.473Z,6.56
2019-03-17T01:35:32.394Z,6.38
2019-03-17T01:40:29.484Z,6.25
2019-03-17T01:45:29.466Z,6.13
2019-03-17T01:50:29.496Z,6.13
2019-03-17T01:55:29.480Z,6.19
2019-03-17T02:00:29.478Z,6.25
2019-03-17T02:05:29.500Z,6.31
2019-03-17T02:10:29.447Z,6.25
2019-03-17T02:15:29.495Z,6.19
2019-03-17T02:20:29.491Z,6.19
2019-03-17T02:25:29.505Z,6.06
2019-03-17T02:30:29.525Z,6.06
2019-03-17T02:35:38.388Z,6
2019-03-17T02:40:29.504Z,5.94
2019-03-17T02:45:29.464Z,5.94
2019-03-17T02:50:29.498Z,6
2019-03-17T02:55:29.521Z,6.13
2019-03-17T03:00:29.520Z,6.25
2019-03-17T03:05:29.526Z,6.5
2019-03-17T03:10:31.676Z,6.56
2019-03-17T03:15:29.562Z,6.56
2019-03-17T03:20:29.532Z,6.56
2019-03-17T03:25:29.526Z,6.5
2019-03-17T03:30:29.561Z,6.5
2019-03-17T03:35:29.564Z,6.44
2019-03-17T03:40:29.542Z,6.38
2019-03-17T03:45:29.539Z,6.31
2019-03-17T03:50:29.547Z,6.25
2019-03-17T03:55:29.542Z,6.25
2019-03-17T04:00:29.544Z,6.25
2019-03-17T04:05:32.501Z,6.19
2019-03-17T04:10:29.546Z,6.19
2019-03-17T04:15:29.555Z,6.19
2019-03-17T04:20:29.548Z,6.13
2019-03-17T04:25:29.548Z,6.13
2019-03-17T04:30:29.515Z,6.06
2019-03-17T04:35:29.561Z,6
2019-03-17T04:40:29.559Z,6
2019-03-17T04:45:29.569Z,5.88
2019-03-17T04:50:29.544Z,5.88
2019-03-17T04:55:29.551Z,5.81
2019-03-17T05:00:29.655Z,5.81
2019-03-17T05:05:29.564Z,5.88
2019-03-17T05:10:29.521Z,6
2019-03-17T05:15:29.580Z,6.06
2019-03-17T05:20:29.576Z,6.13
2019-03-17T05:25:29.576Z,6.25
2019-03-17T05:30:29.583Z,6.31
2019-03-17T05:35:29.535Z,6.44
2019-03-17T05:40:29.590Z,6.5
2019-03-17T05:45:29.599Z,7.44
2019-03-17T05:55:29.594Z,7.19
2019-03-17T06:00:29.570Z,7
2019-03-17T06:05:29.580Z,7.06
2019-03-17T06:10:29.591Z,7.13
2019-03-17T06:15:29.606Z,7.19
2019-03-17T06:20:29.607Z,7.31
2019-03-17T06:25:29.596Z,7.63
2019-03-17T06:30:29.612Z,7.75
2019-03-17T06:35:29.562Z,7.94
2019-03-17T06:40:29.643Z,8.13
2019-03-17T06:45:29.590Z,8.44
2019-03-17T06:50:29.627Z,9.06
2019-03-17T06:55:29.610Z,9.88
2019-03-17T07:00:29.619Z,10.44
2019-03-17T07:05:29.576Z,11.25
2019-03-17T07:10:29.613Z,11.31
2019-03-17T07:15:29.624Z,11.38
2019-03-17T07:20:29.608Z,11.5
2019-03-17T07:25:29.636Z,11.44
2019-03-17T07:30:29.585Z,11.75
2019-03-17T07:35:29.641Z,11.56
2019-03-17T07:40:29.626Z,11.63
2019-03-17T07:45:29.642Z,12.19
2019-03-17T07:50:29.632Z,12.31
2019-03-17T07:55:29.596Z,12.75
2019-03-17T08:00:32.002Z,13.19
2019-03-17T08:05:29.665Z,13.25
2019-03-17T08:10:29.660Z,12.88
2019-03-17T08:15:29.665Z,12.63
2019-03-17T08:20:29.655Z,12.56
2019-03-17T08:25:29.638Z,12.94
2019-03-17T08:30:29.659Z,13.06
2019-03-17T08:35:29.643Z,13.06
2019-03-17T08:40:29.685Z,13
2019-03-17T08:45:29.664Z,12.94
2019-03-17T08:50:29.659Z,12.81
2019-03-17T08:55:29.662Z,13
2019-03-17T09:00:29.622Z,13.19
2019-03-17T09:05:29.755Z,12.63
2019-03-17T09:10:29.683Z,12.25
2019-03-17T09:15:29.627Z,12.13
2019-03-17T09:20:29.694Z,12.06
2019-03-17T09:25:29.681Z,12.19
2019-03-17T09:30:29.702Z,12.13
2019-03-17T09:35:29.691Z,12.19
2019-03-17T09:40:29.649Z,12.31
2019-03-17T09:45:29.704Z,12.56
2019-03-17T09:50:29.752Z,13.75
2019-03-17T09:55:29.696Z,14.44
2019-03-17T10:00:29.696Z,14.5
2019-03-17T10:05:29.672Z,15.06
2019-03-17T10:10:29.704Z,15.25
2019-03-17T10:15:29.704Z,14.88
2019-03-17T10:20:29.698Z,14.88
2019-03-17T10:25:29.791Z,14.88
2019-03-17T10:30:29.719Z,14.63
2019-03-17T10:35:29.703Z,14.25
2019-03-17T10:40:29.737Z,14.19
2019-03-17T10:45:29.719Z,14
2019-03-17T10:50:29.703Z,13.63
2019-03-17T10:55:29.735Z,13.38
2019-03-17T11:00:29.727Z,13.38
2019-03-17T11:05:29.742Z,13.5
2019-03-17T11:10:29.736Z,13.69
2019-03-17T11:15:29.732Z,14
2019-03-17T11:20:29.754Z,13.75
2019-03-17T11:25:29.727Z,13.5
2019-03-17T11:30:29.747Z,13.69
2019-03-17T11:35:29.728Z,13.63
2019-03-17T11:40:29.746Z,13.63
2019-03-17T11:45:29.766Z,13.69
2019-03-17T11:50:29.705Z,13.63
2019-03-17T11:55:31.777Z,13.5
2019-03-17T12:00:29.750Z,13.5
2019-03-17T12:05:29.761Z,13.38
2019-03-17T12:10:29.740Z,13.44
2019-03-17T12:15:29.748Z,13.38
2019-03-17T12:20:29.746Z,13.19
2019-03-17T12:25:29.764Z,13
2019-03-17T12:30:29.785Z,12.88
2019-03-17T12:35:29.792Z,12.75
2019-03-17T12:40:29.729Z,12.56
2019-03-17T12:45:29.753Z,12.13
2019-03-17T12:50:29.786Z,11.75
2019-03-17T12:55:29.772Z,11.44
2019-03-17T13:00:29.796Z,11.31
2019-03-17T13:05:29.779Z,11.13
2019-03-17T13:10:29.773Z,11
2019-03-17T13:15:29.800Z,10.81
2019-03-17T13:20:30.011Z,10.56
2019-03-17T13:25:29.746Z,10.25
2019-03-17T13:30:29.799Z,10.19
2019-03-17T13:35:29.762Z,10.06
2019-03-17T13:40:30.231Z,10
2019-03-17T13:45:29.788Z,10
2019-03-17T13:50:29.798Z,10
2019-03-17T13:55:29.753Z,10.13
2019-03-17T14:00:29.789Z,10.19
2019-03-17T14:05:29.819Z,9.5
2019-03-17T14:10:40.229Z,9.25
2019-03-17T14:15:29.810Z,9.06
2019-03-17T14:20:29.814Z,8.88
2019-03-17T14:25:31.080Z,8.13
2019-03-17T14:30:29.820Z,7.75
2019-03-17T14:35:29.816Z,7.31
2019-03-17T14:40:29.896Z,7.06
2019-03-17T14:45:29.811Z,6.63
2019-03-17T14:50:29.817Z,6.5
2019-03-17T14:55:29.832Z,6.5
2019-03-17T15:00:29.830Z,6.5
2019-03-17T15:05:29.816Z,6.56
2019-03-17T15:10:29.846Z,6.5
2019-03-17T15:15:29.840Z,6.56
2019-03-17T15:20:29.847Z,6.63
2019-03-17T15:25:29.790Z,6.81
2019-03-17T15:30:29.835Z,6.88
2019-03-17T15:35:29.835Z,6.94
2019-03-17T15:40:29.846Z,7
2019-03-17T15:45:29.843Z,7.06
2019-03-17T15:50:29.843Z,7.06
2019-03-17T15:55:29.868Z,7.06
2019-03-17T16:00:29.854Z,7.13
2019-03-17T16:05:29.871Z,7.13
2019-03-17T16:10:29.865Z,7.19
2019-03-17T16:15:29.853Z,7.19
2019-03-17T16:20:29.843Z,7.19
2019-03-17T16:25:29.883Z,7.31
2019-03-17T16:30:29.877Z,7.38
2019-03-17T16:35:29.877Z,7.38
2019-03-17T16:40:29.866Z,7.38
2019-03-17T16:45:29.845Z,7.44
2019-03-17T16:50:29.894Z,7.44
2019-03-17T16:55:29.903Z,7.44
2019-03-17T17:00:29.879Z,7.44
2019-03-17T17:05:29.875Z,7.38
2019-03-17T17:10:29.843Z,7.31
2019-03-17T17:15:29.888Z,7.31
2019-03-17T17:20:29.885Z,7.25
2019-03-17T17:25:29.891Z,7
2019-03-17T17:30:29.898Z,6.94
2019-03-17T17:35:29.902Z,6.88
2019-03-17T17:40:29.909Z,6.81
2019-03-17T17:45:29.894Z,6.69
2019-03-17T17:50:30.028Z,6.69
2019-03-17T17:55:29.925Z,6.63
2019-03-17T18:00:29.898Z,6.63
2019-03-17T18:05:30.115Z,6.63
2019-03-17T18:10:29.925Z,6.63
2019-03-17T18:15:29.906Z,6.69
2019-03-17T18:20:29.882Z,6.69
2019-03-17T18:25:29.930Z,6.69
2019-03-17T18:30:29.924Z,6.69
2019-03-17T18:35:29.927Z,6.69
2019-03-17T18:40:29.920Z,6.63
2019-03-17T18:45:29.930Z,6.56
2019-03-17T18:50:29.886Z,6.5
2019-03-17T18:55:29.994Z,6.5
2019-03-17T19:00:29.953Z,6.5
2019-03-17T19:05:29.964Z,6.38
2019-03-17T19:10:29.933Z,6.38
2019-03-17T19:15:29.929Z,6.31
2019-03-17T19:20:29.957Z,6.25
2019-03-17T19:25:29.897Z,6.25
2019-03-17T19:30:29.947Z,6.25
2019-03-17T19:35:29.941Z,6.25
2019-03-17T19:40:29.904Z,6.19
2019-03-17T19:45:29.954Z,6.19
2019-03-17T19:50:29.918Z,6.13
2019-03-17T19:55:29.967Z,6.13
2019-03-17T20:00:29.956Z,6.06
2019-03-17T20:05:30.058Z,6
2019-03-17T20:10:29.968Z,5.94
2019-03-17T20:15:29.955Z,5.88
2019-03-17T20:20:29.994Z,5.81
2019-03-17T20:25:29.972Z,5.81
2019-03-17T20:30:29.975Z,5.75
2019-03-17T20:35:29.975Z,5.75
2019-03-17T20:40:29.969Z,5.75
2019-03-17T20:45:29.977Z,5.69
2019-03-17T20:50:29.974Z,5.56
2019-03-17T20:55:29.982Z,5.56
2019-03-17T21:00:30.051Z,5.5
2019-03-17T21:05:29.984Z,5.44
2019-03-17T21:10:29.989Z,5.44
2019-03-17T21:15:30.074Z,5.38
2019-03-17T21:20:30.005Z,5.38
2019-03-17T21:25:29.962Z,5.31
2019-03-17T21:30:30.008Z,5.31
2019-03-17T21:35:30.006Z,5.25
2019-03-17T21:40:30.005Z,5.25
2019-03-17T21:45:30.093Z,5.19
2019-03-17T21:50:29.959Z,5.13
2019-03-17T21:55:30.017Z,5.06
2019-03-17T22:00:30.011Z,5.06
2019-03-17T22:05:30.032Z,5
2019-03-17T22:10:30.012Z,4.94
2019-03-17T22:15:30.016Z,5
2019-03-17T22:20:29.998Z,5.06
2019-03-17T22:25:30.010Z,5.13
2019-03-17T22:30:30.008Z,5.13
2019-03-17T22:35:30.015Z,5.19
2019-03-17T22:40:30.160Z,5.19
2019-03-17T22:45:30.130Z,5.19
2019-03-17T22:50:30.044Z,5.19
2019-03-17T22:55:30.016Z,5.13
2019-03-17T23:00:30.018Z,5.13
2019-03-17T23:05:30.026Z,5.13
2019-03-17T23:10:30.021Z,5.19
2019-03-17T23:15:30.018Z,5.19
2019-03-17T23:20:30.047Z,5.19
2019-03-17T23:25:30.017Z,5.13
2019-03-17T23:30:30.031Z,5.06
2019-03-17T23:35:30.066Z,5
2019-03-17T23:40:30.061Z,4.94
2019-03-17T23:45:30.059Z,4.94
2019-03-17T23:50:30.032Z,4.94
2019-03-17T23:55:30.042Z,4.94
